Sao Joao da Mata, Brazil
Current Conditions -  °F | °C
As of 7:00 PM on Thursday 27 Nov 2014 (Local Time) from SBPC Reporting Station
Few Clouds Few Clouds  
Wind Chill: 73°   Ceiling: Unl
Heat Index: 73°   Visibility: 6mi
Dew Point: 72°   Wind: 5mph
Humidity: 94%   Direction: 290°WNW
Pressure: 30"   Gusts: NA
Location:  21.93°S, 45.93°W
Report Text: SBPC 272100Z 29004KT 9999 FEW018 23/22 Q1016
Loading
Personal Weather Stations






























Interactive Weather Map New forecast layout! Learn more

10-Day Weather Forecast

Advertisements
Track Severe Weather on mobile